sensor_id;sensor_type;location;lat;lon;timestamp;P1;durP1;ratioP1;P2;durP2;ratioP2
15354;SDS011;7777;52.254;9.618;2022-09-17T00:00:59;8.60;;;1.90;;
15354;SDS011;7777;52.254;9.618;2022-09-17T00:03:26;11.40;;;1.97;;
15354;SDS011;7777;52.254;9.618;2022-09-17T00:06:05;6.90;;;1.67;;
15354;SDS011;7777;52.254;9.618;2022-09-17T00:08:35;12.03;;;2.50;;
15354;SDS011;7777;52.254;9.618;2022-09-17T00:11:37;7.07;;;1.50;;
15354;SDS011;7777;52.254;9.618;2022-09-17T00:13:57;7.03;;;1.70;;
15354;SDS011;7777;52.254;9.618;2022-09-17T00:16:27;6.60;;;1.60;;
15354;SDS011;7777;52.254;9.618;2022-09-17T00:19:01;8.53;;;1.93;;
15354;SDS011;7777;52.254;9.618;2022-09-17T00:21:30;10.53;;;2.53;;
15354;SDS011;7777;52.254;9.618;2022-09-17T00:23:57;9.27;;;2.10;;
15354;SDS011;7777;52.254;9.618;2022-09-17T00:26:26;7.77;;;1.90;;
15354;SDS011;7777;52.254;9.618;2022-09-17T00:28:53;7.77;;;1.90;;
15354;SDS011;7777;52.254;9.618;2022-09-17T00:31:21;10.53;;;2.17;;
15354;SDS011;7777;52.254;9.618;2022-09-17T00:33:48;9.47;;;1.77;;
15354;SDS011;7777;52.254;9.618;2022-09-17T00:36:14;7.30;;;1.87;;
15354;SDS011;7777;52.254;9.618;2022-09-17T00:38:40;7.13;;;2.03;;
15354;SDS011;7777;52.254;9.618;2022-09-17T00:41:06;9.37;;;2.27;;
15354;SDS011;7777;52.254;9.618;2022-09-17T00:43:33;10.93;;;1.93;;
15354;SDS011;7777;52.254;9.618;2022-09-17T00:49:15;5.93;;;1.70;;
15354;SDS011;7777;52.254;9.618;2022-09-17T00:51:54;6.50;;;1.83;;
15354;SDS011;7777;52.254;9.618;2022-09-17T00:54:25;10.27;;;2.03;;
15354;SDS011;7777;52.254;9.618;2022-09-17T00:56:51;10.17;;;1.90;;
15354;SDS011;7777;52.254;9.618;2022-09-17T00:59:18;7.23;;;1.80;;
15354;SDS011;7777;52.254;9.618;2022-09-17T01:01:46;11.57;;;2.83;;
15354;SDS011;7777;52.254;9.618;2022-09-17T01:04:20;12.93;;;2.23;;
15354;SDS011;7777;52.254;9.618;2022-09-17T01:06:52;11.10;;;2.20;;
15354;SDS011;7777;52.254;9.618;2022-09-17T01:09:43;12.30;;;2.80;;
15354;SDS011;7777;52.254;9.618;2022-09-17T01:18:16;8.80;;;1.93;;
15354;SDS011;7777;52.254;9.618;2022-09-17T01:32:37;9.83;;;2.23;;
15354;SDS011;7777;52.254;9.618;2022-09-17T01:38:28;12.30;;;2.10;;
15354;SDS011;7777;52.254;9.618;2022-09-17T01:41:17;14.47;;;2.37;;
15354;SDS011;7777;52.254;9.618;2022-09-17T01:43:56;14.40;;;1.67;;
15354;SDS011;7777;52.254;9.618;2022-09-17T01:46:31;11.77;;;2.67;;
15354;SDS011;7777;52.254;9.618;2022-09-17T01:49:05;13.57;;;2.87;;
15354;SDS011;7777;52.254;9.618;2022-09-17T01:51:38;15.00;;;2.63;;
15354;SDS011;7777;52.254;9.618;2022-09-17T01:57:02;15.07;;;2.77;;
15354;SDS011;7777;52.254;9.618;2022-09-17T01:59:38;12.40;;;2.10;;
15354;SDS011;7777;52.254;9.618;2022-09-17T02:02:20;12.20;;;2.17;;
15354;SDS011;7777;52.254;9.618;2022-09-17T02:04:58;7.53;;;1.80;;
15354;SDS011;7777;52.254;9.618;2022-09-17T02:07:46;11.77;;;2.47;;
15354;SDS011;7777;52.254;9.618;2022-09-17T02:10:20;10.27;;;2.37;;
15354;SDS011;7777;52.254;9.618;2022-09-17T02:13:02;11.73;;;2.73;;
15354;SDS011;7777;52.254;9.618;2022-09-17T02:15:39;15.07;;;2.93;;
15354;SDS011;7777;52.254;9.618;2022-09-17T02:21:14;8.63;;;2.20;;
15354;SDS011;7777;52.254;9.618;2022-09-17T02:23:51;17.67;;;3.33;;
15354;SDS011;7777;52.254;9.618;2022-09-17T02:26:27;15.07;;;2.67;;
15354;SDS011;7777;52.254;9.618;2022-09-17T02:28:55;9.80;;;2.40;;
15354;SDS011;7777;52.254;9.618;2022-09-17T02:31:26;16.63;;;3.30;;
15354;SDS011;7777;52.254;9.618;2022-09-17T02:33:53;9.20;;;2.90;;
15354;SDS011;7777;52.254;9.618;2022-09-17T02:36:25;8.83;;;2.00;;
15354;SDS011;7777;52.254;9.618;2022-09-17T02:38:58;12.73;;;2.40;;
15354;SDS011;7777;52.254;9.618;2022-09-17T02:41:31;12.70;;;2.73;;
15354;SDS011;7777;52.254;9.618;2022-09-17T02:50:05;6.80;;;2.17;;
15354;SDS011;7777;52.254;9.618;2022-09-17T02:52:48;12.73;;;2.60;;
15354;SDS011;7777;52.254;9.618;2022-09-17T02:58:45;10.27;;;2.67;;
15354;SDS011;7777;52.254;9.618;2022-09-17T03:01:21;16.13;;;3.10;;
15354;SDS011;7777;52.254;9.618;2022-09-17T03:03:56;12.87;;;2.63;;
15354;SDS011;7777;52.254;9.618;2022-09-17T03:06:26;12.43;;;2.60;;
15354;SDS011;7777;52.254;9.618;2022-09-17T03:08:51;12.77;;;3.00;;
15354;SDS011;7777;52.254;9.618;2022-09-17T03:11:17;8.90;;;2.20;;
15354;SDS011;7777;52.254;9.618;2022-09-17T03:13:43;11.37;;;2.67;;
15354;SDS011;7777;52.254;9.618;2022-09-17T03:16:09;11.70;;;1.87;;
15354;SDS011;7777;52.254;9.618;2022-09-17T03:18:34;11.23;;;2.87;;
15354;SDS011;7777;52.254;9.618;2022-09-17T03:21:00;6.77;;;2.13;;
15354;SDS011;7777;52.254;9.618;2022-09-17T03:23:26;8.63;;;2.40;;
15354;SDS011;7777;52.254;9.618;2022-09-17T03:25:52;12.10;;;2.80;;
15354;SDS011;7777;52.254;9.618;2022-09-17T03:28:19;17.00;;;2.63;;
15354;SDS011;7777;52.254;9.618;2022-09-17T03:30:45;10.10;;;2.43;;
15354;SDS011;7777;52.254;9.618;2022-09-17T03:33:11;13.90;;;2.80;;
15354;SDS011;7777;52.254;9.618;2022-09-17T03:35:37;13.93;;;2.70;;
15354;SDS011;7777;52.254;9.618;2022-09-17T03:38:06;13.37;;;3.43;;
15354;SDS011;7777;52.254;9.618;2022-09-17T03:40:32;13.97;;;2.67;;
15354;SDS011;7777;52.254;9.618;2022-09-17T03:42:58;14.57;;;3.53;;
15354;SDS011;7777;52.254;9.618;2022-09-17T03:45:24;12.93;;;3.10;;
15354;SDS011;7777;52.254;9.618;2022-09-17T03:47:49;13.27;;;2.53;;
15354;SDS011;7777;52.254;9.618;2022-09-17T03:50:15;12.23;;;2.77;;
15354;SDS011;7777;52.254;9.618;2022-09-17T03:52:43;10.00;;;2.57;;
15354;SDS011;7777;52.254;9.618;2022-09-17T03:55:09;11.47;;;2.60;;
15354;SDS011;7777;52.254;9.618;2022-09-17T03:57:36;14.10;;;2.87;;
15354;SDS011;7777;52.254;9.618;2022-09-17T04:00:03;12.43;;;3.43;;
15354;SDS011;7777;52.254;9.618;2022-09-17T04:02:30;9.60;;;2.00;;
15354;SDS011;7777;52.254;9.618;2022-09-17T04:04:56;12.30;;;2.47;;
15354;SDS011;7777;52.254;9.618;2022-09-17T04:07:21;12.93;;;2.30;;
15354;SDS011;7777;52.254;9.618;2022-09-17T04:09:47;10.90;;;2.40;;
15354;SDS011;7777;52.254;9.618;2022-09-17T04:12:13;11.77;;;3.40;;
15354;SDS011;7777;52.254;9.618;2022-09-17T04:14:38;12.47;;;2.73;;
15354;SDS011;7777;52.254;9.618;2022-09-17T04:17:04;15.27;;;3.10;;
15354;SDS011;7777;52.254;9.618;2022-09-17T04:19:30;12.63;;;2.33;;
15354;SDS011;7777;52.254;9.618;2022-09-17T04:21:56;10.83;;;2.53;;
15354;SDS011;7777;52.254;9.618;2022-09-17T04:24:21;17.63;;;3.37;;
15354;SDS011;7777;52.254;9.618;2022-09-17T04:26:47;8.60;;;2.50;;
15354;SDS011;7777;52.254;9.618;2022-09-17T04:29:13;11.37;;;3.20;;
15354;SDS011;7777;52.254;9.618;2022-09-17T04:31:38;12.27;;;2.90;;
15354;SDS011;7777;52.254;9.618;2022-09-17T04:34:04;14.73;;;3.33;;
15354;SDS011;7777;52.254;9.618;2022-09-17T04:36:30;14.20;;;3.43;;
15354;SDS011;7777;52.254;9.618;2022-09-17T04:38:56;13.77;;;2.67;;
15354;SDS011;7777;52.254;9.618;2022-09-17T04:41:21;16.17;;;2.47;;
15354;SDS011;7777;52.254;9.618;2022-09-17T04:43:47;16.60;;;3.40;;
15354;SDS011;7777;52.254;9.618;2022-09-17T04:46:13;14.90;;;3.73;;
15354;SDS011;7777;52.254;9.618;2022-09-17T04:48:40;12.00;;;3.03;;
15354;SDS011;7777;52.254;9.618;2022-09-17T04:51:07;11.73;;;2.43;;
15354;SDS011;7777;52.254;9.618;2022-09-17T04:53:33;17.93;;;3.33;;
15354;SDS011;7777;52.254;9.618;2022-09-17T04:55:59;15.93;;;3.40;;
15354;SDS011;7777;52.254;9.618;2022-09-17T04:58:24;11.50;;;2.93;;
15354;SDS011;7777;52.254;9.618;2022-09-17T05:00:50;13.63;;;2.73;;
15354;SDS011;7777;52.254;9.618;2022-09-17T05:03:16;17.17;;;3.23;;
15354;SDS011;7777;52.254;9.618;2022-09-17T05:05:42;15.63;;;2.77;;
15354;SDS011;7777;52.254;9.618;2022-09-17T05:08:07;13.00;;;3.30;;
15354;SDS011;7777;52.254;9.618;2022-09-17T05:10:33;15.07;;;2.80;;
15354;SDS011;7777;52.254;9.618;2022-09-17T05:12:59;12.83;;;3.20;;
15354;SDS011;7777;52.254;9.618;2022-09-17T05:15:25;12.87;;;2.50;;
15354;SDS011;7777;52.254;9.618;2022-09-17T05:17:51;9.60;;;2.33;;
15354;SDS011;7777;52.254;9.618;2022-09-17T05:20:18;14.27;;;2.67;;
15354;SDS011;7777;52.254;9.618;2022-09-17T05:22:45;11.23;;;2.50;;
15354;SDS011;7777;52.254;9.618;2022-09-17T05:25:14;12.03;;;3.03;;
15354;SDS011;7777;52.254;9.618;2022-09-17T05:27:42;11.27;;;2.50;;
15354;SDS011;7777;52.254;9.618;2022-09-17T05:30:08;8.67;;;2.13;;
15354;SDS011;7777;52.254;9.618;2022-09-17T05:32:35;14.47;;;3.27;;
15354;SDS011;7777;52.254;9.618;2022-09-17T05:35:03;12.47;;;2.27;;
15354;SDS011;7777;52.254;9.618;2022-09-17T05:37:30;16.67;;;3.80;;
15354;SDS011;7777;52.254;9.618;2022-09-17T05:39:56;16.33;;;2.80;;
15354;SDS011;7777;52.254;9.618;2022-09-17T05:42:21;10.27;;;2.83;;
15354;SDS011;7777;52.254;9.618;2022-09-17T05:44:47;12.97;;;2.77;;
15354;SDS011;7777;52.254;9.618;2022-09-17T05:47:13;9.60;;;3.10;;
15354;SDS011;7777;52.254;9.618;2022-09-17T05:49:39;17.23;;;2.93;;
15354;SDS011;7777;52.254;9.618;2022-09-17T05:52:05;10.97;;;2.00;;
15354;SDS011;7777;52.254;9.618;2022-09-17T05:54:30;14.03;;;2.87;;
15354;SDS011;7777;52.254;9.618;2022-09-17T05:56:56;12.13;;;2.50;;
15354;SDS011;7777;52.254;9.618;2022-09-17T05:59:22;11.43;;;2.37;;
15354;SDS011;7777;52.254;9.618;2022-09-17T06:01:47;17.27;;;2.70;;
15354;SDS011;7777;52.254;9.618;2022-09-17T06:04:14;17.30;;;3.97;;
15354;SDS011;7777;52.254;9.618;2022-09-17T06:06:42;12.43;;;2.90;;
15354;SDS011;7777;52.254;9.618;2022-09-17T06:09:08;12.30;;;2.93;;
15354;SDS011;7777;52.254;9.618;2022-09-17T06:11:35;13.93;;;3.47;;
15354;SDS011;7777;52.254;9.618;2022-09-17T06:14:02;10.20;;;2.47;;
15354;SDS011;7777;52.254;9.618;2022-09-17T06:16:28;10.53;;;2.83;;
15354;SDS011;7777;52.254;9.618;2022-09-17T06:18:54;9.97;;;2.73;;
15354;SDS011;7777;52.254;9.618;2022-09-17T06:21:20;11.83;;;2.60;;
15354;SDS011;7777;52.254;9.618;2022-09-17T06:23:47;13.03;;;2.70;;
15354;SDS011;7777;52.254;9.618;2022-09-17T06:26:14;11.90;;;2.53;;
15354;SDS011;7777;52.254;9.618;2022-09-17T06:28:41;9.57;;;2.63;;
15354;SDS011;7777;52.254;9.618;2022-09-17T06:31:07;15.43;;;2.83;;
15354;SDS011;7777;52.254;9.618;2022-09-17T06:33:35;13.03;;;2.30;;
15354;SDS011;7777;52.254;9.618;2022-09-17T06:36:02;14.47;;;3.00;;
15354;SDS011;7777;52.254;9.618;2022-09-17T06:38:32;15.53;;;2.80;;
15354;SDS011;7777;52.254;9.618;2022-09-17T06:41:00;9.40;;;2.57;;
15354;SDS011;7777;52.254;9.618;2022-09-17T06:43:26;14.40;;;3.30;;
15354;SDS011;7777;52.254;9.618;2022-09-17T06:48:20;10.30;;;2.40;;
15354;SDS011;7777;52.254;9.618;2022-09-17T06:50:50;10.33;;;2.77;;
15354;SDS011;7777;52.254;9.618;2022-09-17T06:53:18;14.77;;;2.73;;
15354;SDS011;7777;52.254;9.618;2022-09-17T06:55:45;14.83;;;2.90;;
15354;SDS011;7777;52.254;9.618;2022-09-17T06:58:11;9.57;;;2.37;;
15354;SDS011;7777;52.254;9.618;2022-09-17T07:00:37;17.70;;;3.03;;
15354;SDS011;7777;52.254;9.618;2022-09-17T07:03:03;13.50;;;2.73;;
15354;SDS011;7777;52.254;9.618;2022-09-17T07:05:33;12.90;;;2.87;;
15354;SDS011;7777;52.254;9.618;2022-09-17T07:08:02;17.83;;;3.57;;
15354;SDS011;7777;52.254;9.618;2022-09-17T07:10:29;19.97;;;3.73;;
15354;SDS011;7777;52.254;9.618;2022-09-17T07:12:56;10.50;;;2.57;;
15354;SDS011;7777;52.254;9.618;2022-09-17T07:15:23;15.90;;;3.23;;
15354;SDS011;7777;52.254;9.618;2022-09-17T07:17:49;10.57;;;2.30;;
15354;SDS011;7777;52.254;9.618;2022-09-17T07:20:15;16.47;;;3.87;;
15354;SDS011;7777;52.254;9.618;2022-09-17T07:22:41;14.37;;;2.50;;
15354;SDS011;7777;52.254;9.618;2022-09-17T07:25:07;13.13;;;3.07;;
15354;SDS011;7777;52.254;9.618;2022-09-17T07:27:34;11.13;;;2.53;;
15354;SDS011;7777;52.254;9.618;2022-09-17T07:29:59;10.30;;;2.47;;
15354;SDS011;7777;52.254;9.618;2022-09-17T07:32:26;10.67;;;2.73;;
15354;SDS011;7777;52.254;9.618;2022-09-17T07:34:54;14.20;;;3.30;;
15354;SDS011;7777;52.254;9.618;2022-09-17T07:37:20;12.57;;;2.73;;
15354;SDS011;7777;52.254;9.618;2022-09-17T07:39:46;14.17;;;2.60;;
15354;SDS011;7777;52.254;9.618;2022-09-17T07:42:11;10.27;;;2.80;;
15354;SDS011;7777;52.254;9.618;2022-09-17T07:44:37;14.90;;;2.87;;
15354;SDS011;7777;52.254;9.618;2022-09-17T07:47:03;11.20;;;2.67;;
15354;SDS011;7777;52.254;9.618;2022-09-17T07:49:29;8.00;;;2.50;;
15354;SDS011;7777;52.254;9.618;2022-09-17T07:51:55;12.43;;;2.03;;
15354;SDS011;7777;52.254;9.618;2022-09-17T07:54:21;11.67;;;2.73;;
15354;SDS011;7777;52.254;9.618;2022-09-17T07:56:47;17.87;;;3.37;;
15354;SDS011;7777;52.254;9.618;2022-09-17T07:59:13;16.47;;;3.87;;
15354;SDS011;7777;52.254;9.618;2022-09-17T08:01:39;9.43;;;2.43;;
15354;SDS011;7777;52.254;9.618;2022-09-17T08:04:05;9.67;;;2.50;;
15354;SDS011;7777;52.254;9.618;2022-09-17T08:06:35;16.20;;;2.80;;
15354;SDS011;7777;52.254;9.618;2022-09-17T08:09:02;14.63;;;3.33;;
15354;SDS011;7777;52.254;9.618;2022-09-17T08:11:29;9.43;;;2.43;;
15354;SDS011;7777;52.254;9.618;2022-09-17T08:13:55;10.97;;;2.60;;
15354;SDS011;7777;52.254;9.618;2022-09-17T08:16:21;13.60;;;3.00;;
15354;SDS011;7777;52.254;9.618;2022-09-17T08:18:52;12.97;;;2.53;;
15354;SDS011;7777;52.254;9.618;2022-09-17T08:21:20;10.63;;;2.73;;
15354;SDS011;7777;52.254;9.618;2022-09-17T08:23:46;10.77;;;2.20;;
15354;SDS011;7777;52.254;9.618;2022-09-17T08:26:16;11.43;;;2.33;;
15354;SDS011;7777;52.254;9.618;2022-09-17T08:28:53;11.80;;;2.83;;
15354;SDS011;7777;52.254;9.618;2022-09-17T08:31:20;11.33;;;2.47;;
15354;SDS011;7777;52.254;9.618;2022-09-17T08:33:49;14.60;;;2.97;;
15354;SDS011;7777;52.254;9.618;2022-09-17T08:36:15;12.40;;;2.50;;
15354;SDS011;7777;52.254;9.618;2022-09-17T08:38:43;10.20;;;1.83;;
15354;SDS011;7777;52.254;9.618;2022-09-17T08:43:45;19.60;;;3.00;;
15354;SDS011;7777;52.254;9.618;2022-09-17T08:46:40;10.87;;;2.40;;
15354;SDS011;7777;52.254;9.618;2022-09-17T08:51:54;18.13;;;3.53;;
15354;SDS011;7777;52.254;9.618;2022-09-17T09:00:45;11.27;;;2.90;;
15354;SDS011;7777;52.254;9.618;2022-09-17T09:06:10;11.07;;;2.53;;
15354;SDS011;7777;52.254;9.618;2022-09-17T09:11:16;12.63;;;2.27;;
15354;SDS011;7777;52.254;9.618;2022-09-17T09:13:52;13.60;;;2.50;;
15354;SDS011;7777;52.254;9.618;2022-09-17T09:16:32;11.87;;;2.70;;
15354;SDS011;7777;52.254;9.618;2022-09-17T09:19:04;11.97;;;2.20;;
15354;SDS011;7777;52.254;9.618;2022-09-17T09:24:39;9.67;;;2.07;;
15354;SDS011;7777;52.254;9.618;2022-09-17T09:35:24;14.73;;;2.60;;
15354;SDS011;7777;52.254;9.618;2022-09-17T09:38:39;11.07;;;2.63;;
15354;SDS011;7777;52.254;9.618;2022-09-17T09:57:48;20.07;;;3.67;;
15354;SDS011;7777;52.254;9.618;2022-09-17T10:00:25;11.43;;;2.43;;
15354;SDS011;7777;52.254;9.618;2022-09-17T10:05:36;12.03;;;3.10;;
15354;SDS011;7777;52.254;9.618;2022-09-17T10:08:09;15.20;;;2.83;;
15354;SDS011;7777;52.254;9.618;2022-09-17T10:10:53;8.23;;;2.43;;
15354;SDS011;7777;52.254;9.618;2022-09-17T10:13:26;8.83;;;2.37;;
15354;SDS011;7777;52.254;9.618;2022-09-17T10:15:54;11.47;;;2.00;;
15354;SDS011;7777;52.254;9.618;2022-09-17T10:18:21;11.37;;;2.27;;
15354;SDS011;7777;52.254;9.618;2022-09-17T10:23:23;13.47;;;2.47;;
15354;SDS011;7777;52.254;9.618;2022-09-17T10:25:52;13.00;;;2.90;;
15354;SDS011;7777;52.254;9.618;2022-09-17T10:31:10;13.30;;;3.03;;
15354;SDS011;7777;52.254;9.618;2022-09-17T10:33:49;13.53;;;2.37;;
15354;SDS011;7777;52.254;9.618;2022-09-17T10:42:15;11.13;;;2.37;;
15354;SDS011;7777;52.254;9.618;2022-09-17T10:44:52;9.47;;;2.20;;
15354;SDS011;7777;52.254;9.618;2022-09-17T10:47:32;9.63;;;2.20;;
15354;SDS011;7777;52.254;9.618;2022-09-17T10:50:03;11.93;;;1.90;;
15354;SDS011;7777;52.254;9.618;2022-09-17T10:52:58;7.77;;;2.10;;
15354;SDS011;7777;52.254;9.618;2022-09-17T10:55:44;9.30;;;2.00;;
15354;SDS011;7777;52.254;9.618;2022-09-17T11:12:48;4.33;;;1.20;;
15354;SDS011;7777;52.254;9.618;2022-09-17T11:18:11;9.13;;;1.73;;
15354;SDS011;7777;52.254;9.618;2022-09-17T11:21:08;10.27;;;1.93;;
15354;SDS011;7777;52.254;9.618;2022-09-17T11:30:20;7.47;;;1.93;;
15354;SDS011;7777;52.254;9.618;2022-09-17T11:35:45;6.53;;;1.53;;
15354;SDS011;7777;52.254;9.618;2022-09-17T11:41:15;8.77;;;1.80;;
15354;SDS011;7777;52.254;9.618;2022-09-17T11:46:24;6.03;;;1.80;;
15354;SDS011;7777;52.254;9.618;2022-09-17T11:48:58;4.80;;;1.70;;
15354;SDS011;7777;52.254;9.618;2022-09-17T11:51:30;11.37;;;1.60;;
15354;SDS011;7777;52.254;9.618;2022-09-17T11:56:50;7.70;;;1.80;;
15354;SDS011;7777;52.254;9.618;2022-09-17T12:01:55;10.03;;;1.60;;
15354;SDS011;7777;52.254;9.618;2022-09-17T12:07:21;7.70;;;2.17;;
15354;SDS011;7777;52.254;9.618;2022-09-17T12:10:43;8.10;;;1.40;;
15354;SDS011;7777;52.254;9.618;2022-09-17T12:12:58;10.87;;;2.50;;
15354;SDS011;7777;52.254;9.618;2022-09-17T12:15:31;10.73;;;1.90;;
15354;SDS011;7777;52.254;9.618;2022-09-17T12:20:48;5.87;;;1.73;;
15354;SDS011;7777;52.254;9.618;2022-09-17T12:23:21;7.73;;;1.53;;
15354;SDS011;7777;52.254;9.618;2022-09-17T12:26:18;4.70;;;1.53;;
15354;SDS011;7777;52.254;9.618;2022-09-17T12:32:53;7.90;;;1.83;;
15354;SDS011;7777;52.254;9.618;2022-09-17T12:38:40;11.93;;;1.83;;
15354;SDS011;7777;52.254;9.618;2022-09-17T12:41:27;8.17;;;2.37;;
15354;SDS011;7777;52.254;9.618;2022-09-17T12:44:27;16.00;;;1.90;;
15354;SDS011;7777;52.254;9.618;2022-09-17T12:50:35;7.60;;;1.20;;
15354;SDS011;7777;52.254;9.618;2022-09-17T12:58:40;5.33;;;1.00;;
15354;SDS011;7777;52.254;9.618;2022-09-17T13:19:39;10.30;;;1.70;;
15354;SDS011;7777;52.254;9.618;2022-09-17T13:22:21;9.10;;;1.50;;
15354;SDS011;7777;52.254;9.618;2022-09-17T13:25:03;6.63;;;1.87;;
15354;SDS011;7777;52.254;9.618;2022-09-17T13:27:32;8.07;;;1.47;;
15354;SDS011;7777;52.254;9.618;2022-09-17T13:30:01;6.17;;;1.67;;
15354;SDS011;7777;52.254;9.618;2022-09-17T13:43:04;8.47;;;2.37;;
15354;SDS011;7777;52.254;9.618;2022-09-17T13:48:43;12.23;;;2.50;;
15354;SDS011;7777;52.254;9.618;2022-09-17T13:51:46;4.60;;;1.07;;
15354;SDS011;7777;52.254;9.618;2022-09-17T13:54:08;5.40;;;1.13;;
15354;SDS011;7777;52.254;9.618;2022-09-17T13:56:45;3.60;;;0.87;;
15354;SDS011;7777;52.254;9.618;2022-09-17T13:59:19;3.93;;;1.00;;
15354;SDS011;7777;52.254;9.618;2022-09-17T14:10:33;14.47;;;1.70;;
15354;SDS011;7777;52.254;9.618;2022-09-17T14:15:33;8.20;;;1.37;;
15354;SDS011;7777;52.254;9.618;2022-09-17T14:20:53;6.33;;;1.20;;
15354;SDS011;7777;52.254;9.618;2022-09-17T14:23:53;3.00;;;1.03;;
15354;SDS011;7777;52.254;9.618;2022-09-17T14:26:27;4.67;;;1.40;;
15354;SDS011;7777;52.254;9.618;2022-09-17T14:29:18;8.00;;;1.23;;
15354;SDS011;7777;52.254;9.618;2022-09-17T14:32:00;11.10;;;1.83;;
15354;SDS011;7777;52.254;9.618;2022-09-17T14:34:26;10.50;;;2.33;;
15354;SDS011;7777;52.254;9.618;2022-09-17T14:36:52;12.53;;;1.80;;
15354;SDS011;7777;52.254;9.618;2022-09-17T14:39:20;8.03;;;2.33;;
15354;SDS011;7777;52.254;9.618;2022-09-17T14:41:50;5.80;;;1.53;;
15354;SDS011;7777;52.254;9.618;2022-09-17T14:44:19;9.87;;;2.00;;
15354;SDS011;7777;52.254;9.618;2022-09-17T14:46:54;7.73;;;1.60;;
15354;SDS011;7777;52.254;9.618;2022-09-17T14:49:39;9.70;;;1.70;;
15354;SDS011;7777;52.254;9.618;2022-09-17T14:55:10;7.93;;;1.57;;
15354;SDS011;7777;52.254;9.618;2022-09-17T14:57:45;10.80;;;1.57;;
15354;SDS011;7777;52.254;9.618;2022-09-17T15:00:23;7.43;;;1.70;;
15354;SDS011;7777;52.254;9.618;2022-09-17T15:02:53;5.23;;;1.47;;
15354;SDS011;7777;52.254;9.618;2022-09-17T15:05:27;11.10;;;1.93;;
15354;SDS011;7777;52.254;9.618;2022-09-17T15:10:34;9.23;;;1.87;;
15354;SDS011;7777;52.254;9.618;2022-09-17T15:13:10;7.10;;;1.73;;
15354;SDS011;7777;52.254;9.618;2022-09-17T15:15:41;6.63;;;1.60;;
15354;SDS011;7777;52.254;9.618;2022-09-17T15:18:17;8.80;;;2.00;;
15354;SDS011;7777;52.254;9.618;2022-09-17T15:20:45;8.07;;;1.90;;
15354;SDS011;7777;52.254;9.618;2022-09-17T15:23:19;8.60;;;1.80;;
15354;SDS011;7777;52.254;9.618;2022-09-17T15:25:51;6.73;;;1.60;;
15354;SDS011;7777;52.254;9.618;2022-09-17T15:28:27;4.67;;;1.40;;
15354;SDS011;7777;52.254;9.618;2022-09-17T15:31:04;8.90;;;1.70;;
15354;SDS011;7777;52.254;9.618;2022-09-17T15:33:34;9.37;;;1.90;;
15354;SDS011;7777;52.254;9.618;2022-09-17T15:36:06;7.47;;;1.70;;
15354;SDS011;7777;52.254;9.618;2022-09-17T15:38:50;5.00;;;1.10;;
15354;SDS011;7777;52.254;9.618;2022-09-17T15:44:03;5.70;;;1.30;;
15354;SDS011;7777;52.254;9.618;2022-09-17T15:46:46;4.17;;;1.07;;
15354;SDS011;7777;52.254;9.618;2022-09-17T15:49:31;6.57;;;1.50;;
15354;SDS011;7777;52.254;9.618;2022-09-17T15:54:58;7.53;;;1.43;;
15354;SDS011;7777;52.254;9.618;2022-09-17T15:57:24;4.83;;;1.57;;
15354;SDS011;7777;52.254;9.618;2022-09-17T15:59:55;9.87;;;1.50;;
15354;SDS011;7777;52.254;9.618;2022-09-17T16:02:33;6.63;;;1.60;;
15354;SDS011;7777;52.254;9.618;2022-09-17T16:05:45;4.07;;;1.17;;
15354;SDS011;7777;52.254;9.618;2022-09-17T16:07:48;5.23;;;1.53;;
15354;SDS011;7777;52.254;9.618;2022-09-17T16:10:13;9.20;;;1.87;;
15354;SDS011;7777;52.254;9.618;2022-09-17T16:12:40;7.37;;;1.70;;
15354;SDS011;7777;52.254;9.618;2022-09-17T16:15:06;6.13;;;1.63;;
15354;SDS011;7777;52.254;9.618;2022-09-17T16:17:40;5.93;;;1.70;;
15354;SDS011;7777;52.254;9.618;2022-09-17T16:20:12;10.77;;;3.20;;
15354;SDS011;7777;52.254;9.618;2022-09-17T16:22:50;11.37;;;2.60;;
15354;SDS011;7777;52.254;9.618;2022-09-17T16:25:22;6.10;;;2.10;;
15354;SDS011;7777;52.254;9.618;2022-09-17T16:27:54;8.43;;;2.30;;
15354;SDS011;7777;52.254;9.618;2022-09-17T16:30:30;10.20;;;2.63;;
15354;SDS011;7777;52.254;9.618;2022-09-17T16:32:56;9.03;;;2.37;;
15354;SDS011;7777;52.254;9.618;2022-09-17T16:35:23;4.33;;;1.87;;
15354;SDS011;7777;52.254;9.618;2022-09-17T16:37:50;5.93;;;1.77;;
15354;SDS011;7777;52.254;9.618;2022-09-17T16:40:21;6.13;;;2.13;;
15354;SDS011;7777;52.254;9.618;2022-09-17T16:42:48;6.70;;;1.70;;
15354;SDS011;7777;52.254;9.618;2022-09-17T16:45:14;9.50;;;2.53;;
15354;SDS011;7777;52.254;9.618;2022-09-17T16:47:41;11.80;;;3.13;;
15354;SDS011;7777;52.254;9.618;2022-09-17T16:50:11;8.70;;;2.10;;
15354;SDS011;7777;52.254;9.618;2022-09-17T16:52:40;5.97;;;2.03;;
15354;SDS011;7777;52.254;9.618;2022-09-17T16:55:07;7.57;;;1.40;;
15354;SDS011;7777;52.254;9.618;2022-09-17T16:57:33;5.00;;;1.63;;
15354;SDS011;7777;52.254;9.618;2022-09-17T16:59:59;6.77;;;1.70;;
15354;SDS011;7777;52.254;9.618;2022-09-17T17:02:26;6.43;;;1.37;;
15354;SDS011;7777;52.254;9.618;2022-09-17T17:04:51;8.63;;;2.07;;
15354;SDS011;7777;52.254;9.618;2022-09-17T17:07:18;6.90;;;1.67;;
15354;SDS011;7777;52.254;9.618;2022-09-17T17:09:44;8.43;;;2.23;;
15354;SDS011;7777;52.254;9.618;2022-09-17T17:12:10;10.03;;;2.60;;
15354;SDS011;7777;52.254;9.618;2022-09-17T17:14:36;12.53;;;2.87;;
15354;SDS011;7777;52.254;9.618;2022-09-17T17:17:02;8.17;;;2.53;;
15354;SDS011;7777;52.254;9.618;2022-09-17T17:19:27;7.40;;;2.23;;
15354;SDS011;7777;52.254;9.618;2022-09-17T17:21:54;9.47;;;2.30;;
15354;SDS011;7777;52.254;9.618;2022-09-17T17:24:20;7.23;;;1.80;;
15354;SDS011;7777;52.254;9.618;2022-09-17T17:26:46;5.90;;;1.50;;
15354;SDS011;7777;52.254;9.618;2022-09-17T17:29:12;5.70;;;1.93;;
15354;SDS011;7777;52.254;9.618;2022-09-17T17:31:38;15.50;;;2.33;;
15354;SDS011;7777;52.254;9.618;2022-09-17T17:34:04;7.10;;;1.70;;
15354;SDS011;7777;52.254;9.618;2022-09-17T17:36:31;6.00;;;2.37;;
15354;SDS011;7777;52.254;9.618;2022-09-17T17:38:58;5.13;;;2.00;;
15354;SDS011;7777;52.254;9.618;2022-09-17T17:41:24;9.03;;;2.07;;
15354;SDS011;7777;52.254;9.618;2022-09-17T17:43:54;14.80;;;2.80;;
15354;SDS011;7777;52.254;9.618;2022-09-17T17:46:21;8.03;;;2.37;;
15354;SDS011;7777;52.254;9.618;2022-09-17T17:48:48;6.50;;;1.90;;
15354;SDS011;7777;52.254;9.618;2022-09-17T17:51:14;7.97;;;2.27;;
15354;SDS011;7777;52.254;9.618;2022-09-17T17:53:44;6.80;;;1.90;;
15354;SDS011;7777;52.254;9.618;2022-09-17T17:56:10;7.53;;;1.87;;
15354;SDS011;7777;52.254;9.618;2022-09-17T17:58:37;9.03;;;2.03;;
15354;SDS011;7777;52.254;9.618;2022-09-17T18:01:15;8.40;;;2.30;;
15354;SDS011;7777;52.254;9.618;2022-09-17T18:03:43;9.60;;;1.90;;
15354;SDS011;7777;52.254;9.618;2022-09-17T18:06:09;8.70;;;2.37;;
15354;SDS011;7777;52.254;9.618;2022-09-17T18:08:36;12.10;;;2.30;;
15354;SDS011;7777;52.254;9.618;2022-09-17T18:11:04;11.63;;;2.73;;
15354;SDS011;7777;52.254;9.618;2022-09-17T18:13:35;5.83;;;1.93;;
15354;SDS011;7777;52.254;9.618;2022-09-17T18:16:03;11.97;;;2.43;;
15354;SDS011;7777;52.254;9.618;2022-09-17T18:18:32;8.93;;;2.30;;
15354;SDS011;7777;52.254;9.618;2022-09-17T18:21:02;11.50;;;2.43;;
15354;SDS011;7777;52.254;9.618;2022-09-17T18:23:32;10.27;;;1.97;;
15354;SDS011;7777;52.254;9.618;2022-09-17T18:26:00;9.27;;;1.87;;
15354;SDS011;7777;52.254;9.618;2022-09-17T18:28:26;10.07;;;2.50;;
15354;SDS011;7777;52.254;9.618;2022-09-17T18:30:54;7.70;;;1.83;;
15354;SDS011;7777;52.254;9.618;2022-09-17T18:33:22;13.37;;;2.67;;
15354;SDS011;7777;52.254;9.618;2022-09-17T18:35:51;10.90;;;2.67;;
15354;SDS011;7777;52.254;9.618;2022-09-17T18:38:21;9.70;;;2.03;;
15354;SDS011;7777;52.254;9.618;2022-09-17T18:40:48;11.23;;;1.90;;
15354;SDS011;7777;52.254;9.618;2022-09-17T18:43:14;8.60;;;2.50;;
15354;SDS011;7777;52.254;9.618;2022-09-17T18:45:40;9.77;;;2.40;;
15354;SDS011;7777;52.254;9.618;2022-09-17T18:48:05;8.87;;;2.23;;
15354;SDS011;7777;52.254;9.618;2022-09-17T18:50:32;8.13;;;2.93;;